Time;durP1;ratioP1;P1;durP2;ratioP2;P2;SDS_P1;SDS_P2;PMS_P1;PMS_P2;Temp;Humidity;BMP_temperature;BMP_pressure;BME280_temperature;BME280_humidity;BME280_pressure;Samples;Min_cycle;Max_cycle;Signal;HPM_P1;HPM_P2
2023/11/13 00:00:47;;;;;;;2.53;1.63;;;16.40;99.90;;;16.44;52.06;100417.56;4909778;28;98041;-42
2023/11/13 00:03:12;;;;;;;3.63;1.83;;;16.40;99.90;;;16.44;51.52;100417.56;4911653;28;97290;-43
2023/11/13 00:05:38;;;;;;;2.70;1.40;;;16.40;99.90;;;16.52;51.81;100399.31;4908135;28;98188;-42
2023/11/13 00:08:06;;;;;;;2.17;1.60;;;16.50;99.90;;;16.57;51.53;100384.75;4907250;28;97623;-42
2023/11/13 00:10:33;;;;;;;2.73;1.63;;;16.60;99.90;;;16.62;51.69;100365.78;4912672;28;97422;-42
2023/11/13 00:13:02;;;;;;;4.63;1.70;;;16.60;99.90;;;16.68;51.37;100386.75;4907817;28;97624;-45
2023/11/13 00:15:28;;;;;;;3.07;1.63;;;16.70;99.90;;;16.74;51.05;100380.16;4916120;28;96899;-44
2023/11/13 00:17:53;;;;;;;2.90;1.80;;;16.80;99.90;;;16.78;51.13;100374.53;4912938;28;97336;-43
2023/11/13 00:20:20;;;;;;;1.97;1.73;;;16.80;99.90;;;16.84;51.04;100368.81;4909827;28;97702;-43
2023/11/13 00:22:46;;;;;;;2.37;1.67;;;16.90;99.90;;;16.89;50.77;100372.00;4900550;28;97325;-45
2023/11/13 00:25:12;;;;;;;3.33;2.20;;;17.00;99.90;;;16.88;49.26;100370.28;4905484;28;101499;-43
2023/11/13 00:27:38;;;;;;;3.17;1.77;;;17.00;99.90;;;16.90;50.63;100368.38;4904079;28;101820;-45
2023/11/13 00:30:06;;;;;;;2.27;1.90;;;17.00;99.90;;;16.97;50.34;100382.16;4912377;28;97526;-42
2023/11/13 00:32:32;;;;;;;4.10;1.37;;;17.00;99.90;;;16.82;49.54;100397.34;4924419;28;101566;-43
2023/11/13 00:34:59;;;;;;;1.87;1.40;;;16.80;99.90;;;16.78;50.83;100378.97;4924217;28;97329;-42
2023/11/13 00:37:25;;;;;;;2.30;2.07;;;16.70;99.90;;;16.73;47.90;100384.63;4921877;28;97422;-42
2023/11/13 00:39:50;;;;;;;2.10;1.73;;;16.60;99.90;;;16.74;50.75;100373.00;4922066;28;97998;-47
2023/11/13 00:42:16;;;;;;;2.37;1.60;;;16.60;99.90;;;16.80;50.69;100367.31;4926730;28;97221;-42
2023/11/13 00:44:43;;;;;;;1.80;1.53;;;16.80;99.90;;;16.83;47.29;100361.75;4928365;28;100476;-43
2023/11/13 00:47:09;;;;;;;2.27;1.33;;;16.90;99.90;;;16.86;50.52;100361.56;4927636;28;97059;-42
2023/11/13 00:49:34;;;;;;;1.67;1.37;;;16.90;99.90;;;16.82;50.25;100364.53;4927433;28;97441;-43
2023/11/13 00:52:00;;;;;;;2.33;1.50;;;16.80;99.90;;;16.77;50.85;100366.63;4928449;28;96988;-44
2023/11/13 00:54:26;;;;;;;1.50;1.30;;;16.70;99.90;;;16.68;50.78;100361.94;4921826;28;97600;-45
2023/11/13 00:56:52;;;;;;;3.17;1.93;;;16.60;99.90;;;16.54;50.25;100355.66;4917529;28;101402;-45
2023/11/13 00:59:18;;;;;;;1.63;1.30;;;16.40;99.90;;;16.64;51.14;100351.44;4928993;28;97451;-44
2023/11/13 01:01:44;;;;;;;2.10;1.90;;;16.50;99.90;;;16.62;46.82;100363.13;4928136;28;97124;-45
2023/11/13 01:04:10;;;;;;;2.77;1.57;;;16.60;99.90;;;16.55;51.15;100344.06;4925075;28;98347;-46
2023/11/13 01:06:36;;;;;;;3.37;1.80;;;16.40;99.90;;;16.40;50.20;100353.03;4922007;28;123106;-44
2023/11/13 01:09:02;;;;;;;4.00;1.53;;;16.20;99.90;;;16.46;50.81;100341.97;4925589;28;97228;-47
2023/11/13 01:11:28;;;;;;;2.87;1.80;;;16.30;99.90;;;16.31;47.72;100342.97;4926023;28;98405;-45
2023/11/13 01:13:54;;;;;;;2.13;1.50;;;16.10;99.90;;;16.24;52.06;100341.66;4926450;28;98003;-43
2023/11/13 01:16:20;;;;;;;2.60;1.70;;;15.90;99.90;;;16.11;46.88;100338.06;4927826;28;97222;-53
2023/11/13 01:18:47;;;;;;;1.67;1.20;;;15.80;99.90;;;16.09;51.77;100332.00;4927645;28;97126;-42
2023/11/13 01:21:14;;;;;;;2.97;1.43;;;15.70;99.90;;;16.25;52.47;100332.72;4926805;28;97136;-45
2023/11/13 01:23:39;;;;;;;2.63;1.40;;;16.00;99.90;;;16.30;52.05;100343.91;4922437;28;97418;-45
2023/11/13 01:26:05;;;;;;;1.97;1.50;;;16.10;99.90;;;16.22;51.45;100341.78;4915226;28;99995;-43
2023/11/13 01:28:31;;;;;;;2.00;1.47;;;16.00;99.90;;;16.16;52.31;100336.81;4925737;28;97432;-43
2023/11/13 01:30:57;;;;;;;1.43;1.10;;;15.90;99.90;;;16.24;52.07;100323.88;4907926;28;100531;-45
2023/11/13 01:33:23;;;;;;;1.80;1.30;;;16.00;99.90;;;16.32;51.88;100324.22;4925723;28;98424;-45
2023/11/13 01:35:49;;;;;;;2.00;1.37;;;16.20;99.90;;;16.41;48.82;100321.94;4927937;28;97161;-44
2023/11/13 01:38:15;;;;;;;1.83;1.27;;;16.30;99.90;;;16.49;51.53;100324.94;4924587;28;98269;-44
2023/11/13 01:40:41;;;;;;;2.87;1.20;;;16.40;99.90;;;16.50;51.48;100318.69;4923419;28;96906;-44
2023/11/13 01:43:21;;;;;;;2.23;1.50;;;16.50;99.90;;;16.46;49.59;100325.16;4919277;28;111255;-44
2023/11/13 01:45:53;;;;;;;1.47;1.20;;;16.40;99.90;;;16.43;51.59;100310.25;4924636;28;104562;-49
2023/11/13 01:48:19;;;;;;;3.00;1.50;;;16.30;99.90;;;16.46;49.17;100291.41;4924435;28;97400;-44
2023/11/13 01:50:45;;;;;;;2.17;1.40;;;16.40;99.90;;;16.58;51.46;100295.06;4925511;28;98838;-43
2023/11/13 01:53:14;;;;;;;1.17;1.03;;;16.50;99.90;;;16.58;51.29;100282.59;4906848;28;109961;-42
2023/11/13 01:55:41;;;;;;;2.43;1.40;;;16.50;99.90;;;16.64;51.08;100286.69;4909172;28;97157;-42
2023/11/13 01:58:07;;;;;;;4.13;2.00;;;16.60;99.90;;;16.63;50.56;100290.28;4926225;28;111124;-43
2023/11/13 02:00:34;;;;;;;2.13;1.13;;;16.60;99.90;;;16.70;50.83;100280.13;4926325;28;97458;-44
2023/11/13 02:03:05;;;;;;;1.87;1.40;;;16.70;99.90;;;16.76;50.67;100285.88;4926651;28;97309;-44
2023/11/13 02:05:31;;;;;;;2.00;1.20;;;16.80;99.90;;;16.80;50.47;100287.41;4929070;28;103557;-42
2023/11/13 02:07:57;;;;;;;1.57;1.40;;;16.80;99.90;;;16.83;49.53;100297.84;4906515;28;98144;-43
2023/11/13 02:10:26;;;;;;;1.97;1.13;;;16.90;99.90;;;16.88;50.31;100295.72;4926455;28;115549;-44
2023/11/13 02:12:53;;;;;;;2.17;1.20;;;17.00;99.90;;;16.91;50.10;100279.50;4926979;28;97240;-43
2023/11/13 02:15:20;;;;;;;2.77;1.10;;;17.00;99.90;;;16.94;47.92;100278.47;4927568;28;103208;-42
2023/11/13 02:18:00;;;;;;;3.93;1.47;;;17.10;99.90;;;17.01;50.06;100277.09;4923149;28;97502;-43
2023/11/13 02:20:28;;;;;;;1.30;1.20;;;17.10;99.90;;;16.97;49.84;100272.94;4921107;28;97072;-43
2023/11/13 02:22:53;;;;;;;1.53;1.10;;;17.10;99.90;;;17.00;49.64;100275.38;4926932;28;97935;-47
2023/11/13 02:25:23;;;;;;;2.13;1.50;;;17.10;99.90;;;16.90;49.28;100272.47;4930380;28;97705;-43
2023/11/13 02:27:54;;;;;;;3.37;1.37;;;16.90;99.90;;;16.91;49.37;100274.19;4909037;28;97277;-44
2023/11/13 02:30:20;;;;;;;2.03;1.10;;;16.90;99.90;;;16.92;47.92;100275.03;4927227;28;97472;-42
2023/11/13 02:32:50;;;;;;;1.57;1.20;;;17.00;99.90;;;16.95;49.95;100278.38;4927665;28;100521;-45
2023/11/13 02:35:16;;;;;;;0.80;0.80;;;17.00;99.90;;;16.94;49.96;100274.00;4929461;28;101191;-46
2023/11/13 02:37:43;;;;;;;1.63;1.13;;;17.00;99.90;;;16.97;49.99;100272.09;4924811;28;98418;-45
2023/11/13 02:40:11;;;;;;;2.30;1.37;;;17.00;99.90;;;17.01;49.71;100273.56;4928473;28;103687;-44
2023/11/13 02:42:41;;;;;;;1.10;1.00;;;17.10;99.90;;;16.97;49.67;100272.94;4926824;28;97516;-46
2023/11/13 02:45:08;;;;;;;1.97;1.37;;;17.00;99.90;;;16.82;49.27;100277.50;4927676;28;97022;-42
2023/11/13 02:47:35;;;;;;;2.07;1.07;;;16.80;99.90;;;16.86;50.11;100278.97;4922224;28;97645;-43
2023/11/13 02:50:02;;;;;;;2.20;1.00;;;16.80;99.90;;;16.89;49.86;100280.56;4928084;28;97187;-44
2023/11/13 02:52:28;;;;;;;2.43;1.20;;;16.90;99.90;;;16.90;50.15;100283.13;4926908;28;97485;-47
2023/11/13 02:54:54;;;;;;;3.17;1.40;;;16.90;99.90;;;16.97;49.97;100280.06;4926587;28;97465;-45
2023/11/13 02:57:19;;;;;;;1.80;1.13;;;17.00;99.90;;;16.93;49.96;100274.97;4928374;28;97348;-45
2023/11/13 02:59:45;;;;;;;2.07;1.60;;;17.00;99.90;;;16.90;45.66;100282.28;4925993;28;96977;-45
2023/11/13 03:02:12;;;;;;;2.17;1.33;;;17.00;99.90;;;16.86;49.94;100276.31;4925993;28;98330;-45
2023/11/13 03:04:38;;;;;;;1.53;0.93;;;16.90;99.90;;;16.91;49.78;100274.19;4927211;28;97111;-47
2023/11/13 03:07:04;;;;;;;2.70;1.30;;;16.90;99.90;;;16.93;49.96;100282.94;4927426;28;97147;-46
2023/11/13 03:09:30;;;;;;;1.83;1.20;;;17.00;99.90;;;16.92;49.80;100275.91;4926928;28;97824;-44
2023/11/13 03:11:57;;;;;;;3.67;1.30;;;16.90;99.90;;;16.96;48.75;100265.91;4926455;28;108238;-43
2023/11/13 03:14:23;;;;;;;1.23;0.90;;;17.00;99.90;;;16.89;49.68;100276.09;4929605;28;97450;-47
2023/11/13 03:16:49;;;;;;;2.07;1.00;;;16.90;99.90;;;16.90;50.05;100272.47;4933261;28;96731;-50
2023/11/13 03:19:15;;;;;;;1.80;1.00;;;16.80;99.90;;;16.92;50.06;100262.59;4927718;28;99465;-43
2023/11/13 03:21:41;;;;;;;1.77;1.13;;;16.90;99.90;;;16.95;49.33;100251.72;4910459;28;98803;-43
2023/11/13 03:24:07;;;;;;;1.77;1.00;;;17.00;99.90;;;16.97;50.00;100245.44;4929273;28;97397;-43
2023/11/13 03:26:33;;;;;;;1.90;1.17;;;17.00;99.90;;;16.95;47.22;100233.06;4935460;28;97553;-44
2023/11/13 03:28:58;;;;;;;1.63;1.10;;;17.00;99.90;;;16.97;49.52;100240.97;4925431;28;97134;-44
2023/11/13 03:31:24;;;;;;;1.10;0.70;;;17.00;99.90;;;16.99;49.95;100243.53;4927713;28;98308;-42
2023/11/13 03:33:51;;;;;;;2.80;1.27;;;17.00;99.90;;;16.83;46.69;100249.91;4931174;28;118288;-43
2023/11/13 03:36:16;;;;;;;2.13;0.87;;;16.80;99.90;;;16.79;49.33;100247.56;4929903;28;97585;-43
2023/11/13 03:38:42;;;;;;;2.27;1.20;;;16.70;99.90;;;16.55;49.83;100250.88;4929304;28;100154;-45
2023/11/13 03:41:08;;;;;;;2.43;1.40;;;16.40;99.90;;;16.42;50.24;100257.09;4925841;28;98681;-48
2023/11/13 03:43:35;;;;;;;2.37;1.17;;;16.10;99.90;;;16.46;50.65;100255.94;4926136;28;97531;-46
2023/11/13 03:46:02;;;;;;;2.93;1.50;;;16.20;99.90;;;16.22;48.60;100272.59;4925736;28;97052;-46
2023/11/13 03:48:28;;;;;;;3.03;1.17;;;15.90;99.90;;;16.08;50.83;100272.63;4924499;28;97437;-43
2023/11/13 03:50:54;;;;;;;1.47;1.03;;;15.60;99.90;;;16.00;52.74;100274.91;4926921;28;97389;-44
2023/11/13 03:53:20;;;;;;;3.07;1.40;;;15.40;99.90;;;15.75;51.57;100271.13;4926794;28;97061;-43
2023/11/13 03:55:46;;;;;;;1.30;1.00;;;15.20;99.90;;;15.69;53.27;100276.84;4926155;28;97102;-44
2023/11/13 03:58:12;;;;;;;4.13;1.60;;;15.10;99.90;;;15.69;53.05;100274.19;4927361;28;97473;-45
2023/11/13 04:00:38;;;;;;;3.27;1.43;;;15.10;99.90;;;15.52;53.93;100281.47;4927637;28;97444;-45
2023/11/13 04:03:04;;;;;;;1.20;1.00;;;14.90;99.90;;;15.63;54.29;100287.88;4925225;28;97081;-45
2023/11/13 04:05:30;;;;;;;1.90;0.97;;;15.10;99.90;;;15.70;54.00;100275.91;4927166;28;96867;-48
2023/11/13 04:07:56;;;;;;;1.47;1.00;;;15.30;99.90;;;15.72;53.17;100276.66;4924169;28;98448;-41
2023/11/13 04:10:23;;;;;;;1.30;0.93;;;15.40;99.90;;;15.82;53.70;100273.44;4924416;28;97262;-44
2023/11/13 04:12:50;;;;;;;1.13;0.90;;;15.50;99.90;;;15.94;53.32;100270.00;4927660;28;101449;-43
2023/11/13 04:15:16;;;;;;;2.23;1.00;;;15.60;99.90;;;16.08;52.91;100266.44;4927806;28;97344;-48
2023/11/13 04:17:42;;;;;;;1.20;0.90;;;15.90;99.90;;;16.22;52.50;100269.91;4924450;28;97098;-44
2023/11/13 04:20:12;;;;;;;1.13;0.87;;;16.10;99.90;;;16.36;52.17;100272.53;4927106;28;98595;-42
2023/11/13 04:22:40;;;;;;;0.73;0.70;;;16.30;99.90;;;16.46;52.06;100271.91;4924950;28;97241;-42
2023/11/13 04:25:06;;;;;;;1.87;1.00;;;16.50;99.90;;;16.56;51.90;100275.69;4925376;28;97025;-44
2023/11/13 04:27:32;;;;;;;1.67;0.70;;;16.60;99.90;;;16.63;51.53;100279.63;4925738;28;97378;-43
2023/11/13 04:29:58;;;;;;;2.60;1.60;;;16.70;99.90;;;16.63;49.25;100269.81;4924369;28;106603;-42
2023/11/13 04:32:24;;;;;;;0.80;0.80;;;16.70;99.90;;;16.68;51.09;100272.25;4921612;28;97500;-45
2023/11/13 04:34:50;;;;;;;1.40;0.73;;;16.70;99.90;;;16.65;51.30;100269.75;4929259;28;97025;-42
2023/11/13 04:37:17;;;;;;;1.43;0.83;;;16.60;99.90;;;16.73;50.98;100275.44;4909938;28;97430;-44
2023/11/13 04:39:43;;;;;;;1.47;1.00;;;16.70;99.90;;;16.79;50.77;100268.88;4922309;28;102774;-44
2023/11/13 04:42:09;;;;;;;1.17;0.80;;;16.80;99.90;;;16.85;51.04;100261.28;4923314;28;97428;-43
2023/11/13 04:44:36;;;;;;;2.00;0.83;;;16.90;99.90;;;16.90;50.70;100259.16;4908196;28;97329;-42
2023/11/13 04:47:02;;;;;;;1.40;1.10;;;17.00;99.90;;;16.98;50.30;100252.47;4926415;28;97940;-44
2023/11/13 04:49:29;;;;;;;1.20;0.90;;;17.10;99.90;;;17.03;50.31;100258.31;4923349;28;99458;-44
2023/11/13 04:51:55;;;;;;;1.20;0.87;;;17.20;99.90;;;17.05;50.12;100259.91;4926365;28;97358;-45
2023/11/13 04:54:21;;;;;;;1.03;0.93;;;17.20;99.90;;;16.99;50.03;100270.16;4927776;28;103167;-42
2023/11/13 04:56:46;;;;;;;1.43;0.90;;;17.00;99.90;;;16.97;47.99;100261.44;4927150;28;98338;-45
2023/11/13 04:59:12;;;;;;;1.43;0.67;;;17.00;99.90;;;16.91;50.73;100263.53;4926111;28;97494;-43
2023/11/13 05:01:39;;;;;;;1.00;0.83;;;16.90;99.90;;;16.93;50.43;100256.31;4926950;28;97743;-44
2023/11/13 05:04:08;;;;;;;1.43;0.80;;;16.90;99.90;;;16.97;50.50;100266.75;4926066;28;97035;-42
2023/11/13 05:06:38;;;;;;;0.83;0.73;;;17.00;99.90;;;16.89;50.21;100265.44;4923339;28;97129;-45
2023/11/13 05:09:04;;;;;;;2.13;0.83;;;16.80;99.90;;;16.79;51.09;100261.72;4921708;28;97159;-44
2023/11/13 05:11:30;;;;;;;1.70;1.27;;;16.70;99.90;;;16.78;50.18;100252.03;4925795;28;97356;-42
2023/11/13 05:13:56;;;;;;;1.10;0.80;;;16.60;99.90;;;16.79;51.15;100237.75;4923120;28;97215;-43
2023/11/13 05:16:24;;;;;;;0.60;0.57;;;16.70;99.90;;;16.85;50.87;100241.78;4903102;28;97234;-42
2023/11/13 05:18:54;;;;;;;0.97;0.77;;;16.80;99.90;;;16.89;49.39;100232.63;4926964;28;103146;-43
2023/11/13 05:21:21;;;;;;;1.30;0.80;;;16.90;99.90;;;16.92;50.99;100222.63;4925635;28;103785;-42
2023/11/13 05:23:47;;;;;;;0.70;0.70;;;17.00;99.90;;;16.98;50.52;100220.50;4910523;28;96998;-43
2023/11/13 05:26:14;;;;;;;1.13;0.63;;;17.10;99.90;;;16.99;50.53;100216.88;4926550;28;97214;-45
2023/11/13 05:28:40;;;;;;;1.03;0.60;;;17.10;99.90;;;17.00;49.68;100218.59;4927002;28;97970;-45
2023/11/13 05:31:06;;;;;;;1.33;1.17;;;17.00;99.90;;;16.92;48.76;100227.97;4913432;28;97383;-43
2023/11/13 05:33:32;;;;;;;1.03;0.80;;;17.00;99.90;;;16.76;51.35;100229.94;4919094;28;98761;-44
2023/11/13 05:35:58;;;;;;;1.50;0.83;;;16.60;99.90;;;16.67;51.17;100227.94;4926770;28;97429;-42
2023/11/13 05:38:23;;;;;;;1.53;1.00;;;16.50;99.90;;;16.71;48.62;100231.22;4926976;28;97766;-49
2023/11/13 05:40:49;;;;;;;0.57;0.57;;;16.60;99.90;;;16.69;50.37;100225.16;4929978;28;98189;-44
2023/11/13 05:43:15;;;;;;;1.37;0.90;;;16.60;99.90;;;16.21;50.94;100219.47;4928930;28;99625;-47
2023/11/13 05:45:41;;;;;;;2.07;1.30;;;16.00;99.90;;;16.06;51.57;100216.84;4926648;28;97631;-46
2023/11/13 05:48:07;;;;;;;1.90;1.27;;;15.70;99.90;;;15.79;52.34;100209.81;4927022;28;120113;-44
2023/11/13 05:50:33;;;;;;;1.53;0.90;;;15.30;99.90;;;15.61;53.97;100215.31;4929263;28;97444;-43
2023/11/13 05:52:59;;;;;;;2.33;1.07;;;15.00;99.90;;;15.65;53.72;100219.50;4929997;28;97141;-44
2023/11/13 05:55:25;;;;;;;1.77;1.20;;;15.10;99.90;;;15.62;53.21;100216.16;4928927;28;101306;-43
2023/11/13 05:57:52;;;;;;;0.87;0.60;;;15.10;99.90;;;15.76;54.36;100214.34;4929367;28;107975;-45
2023/11/13 06:00:20;;;;;;;2.07;0.70;;;15.30;99.90;;;15.86;53.85;100214.63;4928857;28;101304;-42
2023/11/13 06:02:46;;;;;;;3.03;0.73;;;15.50;99.90;;;15.95;53.29;100197.22;4928284;28;97159;-43
2023/11/13 06:05:13;;;;;;;0.77;0.50;;;15.70;99.90;;;16.05;53.50;100203.63;4928420;28;97470;-44
2023/11/13 06:07:39;;;;;;;1.17;0.90;;;15.80;99.90;;;16.19;52.92;100198.25;4929009;28;98882;-46
2023/11/13 06:10:08;;;;;;;1.93;0.80;;;16.00;99.90;;;16.30;52.63;100203.72;4928804;28;110833;-45
2023/11/13 06:12:34;;;;;;;0.40;0.40;;;16.20;99.90;;;16.46;52.31;100198.22;4928945;28;97371;-42
2023/11/13 06:15:01;;;;;;;0.60;0.50;;;16.40;99.90;;;16.58;51.99;100197.41;4924112;28;97515;-42
2023/11/13 06:17:27;;;;;;;1.47;0.90;;;16.60;99.90;;;16.69;51.80;100182.56;4928727;28;97466;-43
2023/11/13 06:19:53;;;;;;;0.93;0.63;;;16.80;99.90;;;16.79;51.45;100184.47;4928425;28;98789;-42
2023/11/13 06:22:23;;;;;;;0.73;0.60;;;16.90;99.90;;;16.89;51.01;100185.53;4932895;28;96828;-43
2023/11/13 06:24:48;;;;;;;3.10;1.13;;;17.00;99.90;;;16.91;50.06;100191.59;4935487;28;96603;-45
2023/11/13 06:27:14;;;;;;;0.87;0.70;;;17.00;99.90;;;16.94;51.10;100178.09;4932811;28;112509;-44
2023/11/13 06:29:40;;;;;;;0.93;0.60;;;17.00;99.90;;;16.91;50.75;100199.59;4926989;28;98434;-42
2023/11/13 06:32:07;;;;;;;0.90;0.63;;;16.90;99.90;;;16.95;50.65;100190.47;4933995;28;96946;-44
2023/11/13 06:34:33;;;;;;;1.27;0.80;;;17.00;99.90;;;16.98;50.99;100188.53;4934781;28;97425;-42
2023/11/13 06:36:59;;;;;;;1.33;0.80;;;17.00;99.90;;;17.02;50.47;100177.53;4930663;28;98271;-43
2023/11/13 06:39:25;;;;;;;0.90;0.70;;;17.00;99.90;;;17.04;51.00;100180.09;4930034;28;96827;-42
2023/11/13 06:41:52;;;;;;;2.23;0.80;;;17.10;99.90;;;17.01;50.87;100182.97;4930658;28;97433;-44
2023/11/13 06:44:19;;;;;;;0.70;0.60;;;17.00;99.90;;;16.99;50.93;100179.56;4927661;28;97615;-42
2023/11/13 06:46:45;;;;;;;1.13;0.60;;;16.90;99.90;;;16.97;50.92;100181.50;4928986;28;103778;-43
2023/11/13 06:49:11;;;;;;;1.80;0.63;;;16.90;99.90;;;16.95;50.86;100178.94;4926435;28;97111;-42
2023/11/13 06:51:37;;;;;;;0.67;0.60;;;16.90;99.90;;;16.98;50.67;100177.88;4926396;28;97479;-42
2023/11/13 06:54:08;;;;;;;1.10;0.60;;;16.90;99.90;;;16.92;50.69;100180.03;4929602;28;111921;-43
2023/11/13 06:56:34;;;;;;;1.07;0.67;;;16.80;99.90;;;16.83;51.31;100172.66;4928040;28;98183;-41
2023/11/13 06:59:00;;;;;;;1.03;0.63;;;16.60;99.90;;;16.75;51.75;100174.97;4929436;28;97410;-43
2023/11/13 07:01:26;;;;;;;0.97;0.77;;;16.50;99.90;;;16.79;51.58;100179.16;4927471;28;97361;-43
2023/11/13 07:03:52;;;;;;;0.47;0.47;;;16.60;99.90;;;16.77;51.58;100175.72;4929863;28;109660;-48
2023/11/13 07:06:18;;;;;;;1.00;0.67;;;16.60;99.90;;;16.73;51.51;100181.38;4934239;28;103792;-44
2023/11/13 07:08:44;;;;;;;1.53;0.70;;;16.60;99.90;;;16.62;51.91;100192.72;4929219;28;101742;-42
2023/11/13 07:11:14;;;;;;;0.60;0.50;;;16.40;99.90;;;16.64;52.19;100185.50;4928823;28;97432;-45
2023/11/13 07:13:40;;;;;;;0.90;0.87;;;16.40;99.90;;;16.58;51.56;100202.72;4925777;28;96928;-42
2023/11/13 07:16:09;;;;;;;2.43;0.87;;;16.40;99.90;;;16.39;52.70;100198.75;4926392;28;108089;-42
2023/11/13 07:18:34;;;;;;;0.63;0.50;;;16.10;99.90;;;16.40;52.78;100197.81;4910999;28;97311;-49
2023/11/13 07:21:01;;;;;;;0.80;0.50;;;16.00;99.90;;;16.33;52.79;100198.19;4927950;28;97280;-43
2023/11/13 07:23:28;;;;;;;0.80;0.60;;;16.00;99.90;;;16.21;53.62;100199.03;4927558;28;97168;-42
2023/11/13 07:25:55;;;;;;;1.00;0.50;;;15.90;99.90;;;16.04;53.99;100202.78;4911581;28;97706;-46
2023/11/13 07:28:22;;;;;;;0.37;0.33;;;15.70;99.90;;;16.05;54.14;100206.28;4930337;28;97222;-45
2023/11/13 07:30:48;;;;;;;0.83;0.63;;;15.70;99.90;;;16.02;54.14;100209.16;4925529;28;97329;-45
2023/11/13 07:33:14;;;;;;;1.13;0.77;;;15.60;99.90;;;15.86;55.07;100208.44;4925973;28;97370;-43
2023/11/13 07:35:40;;;;;;;0.83;0.50;;;15.40;99.90;;;15.72;55.00;100212.00;4923031;28;97014;-43
2023/11/13 07:38:07;;;;;;;0.67;0.60;;;15.20;99.90;;;15.68;55.44;100210.47;4919852;28;97665;-43
2023/11/13 07:40:36;;;;;;;1.57;0.80;;;15.10;99.90;;;15.65;55.48;100200.06;4922806;28;97050;-43
2023/11/13 07:43:03;;;;;;;1.50;0.60;;;15.10;99.90;;;15.52;56.19;100194.63;4925539;28;97125;-43
2023/11/13 07:45:29;;;;;;;1.20;0.60;;;14.90;99.90;;;15.54;55.94;100189.22;4925527;28;98638;-44
2023/11/13 07:47:56;;;;;;;1.03;0.77;;;15.00;99.90;;;15.59;55.85;100190.63;4927214;28;97563;-43
2023/11/13 07:50:24;;;;;;;1.90;0.80;;;15.20;99.90;;;15.57;55.90;100191.66;4930793;28;97523;-52
2023/11/13 07:52:50;;;;;;;0.53;0.43;;;15.10;99.90;;;15.57;55.74;100181.88;4926449;28;97553;-45
2023/11/13 07:55:18;;;;;;;0.97;0.80;;;15.20;99.90;;;15.58;56.29;100180.94;4921633;28;96994;-46
2023/11/13 07:57:43;;;;;;;1.17;0.50;;;15.30;99.90;;;15.81;55.02;100178.66;4926325;28;100074;-43
2023/11/13 08:00:10;;;;;;;0.50;0.40;;;15.50;99.90;;;15.84;54.96;100189.94;4926285;28;97270;-42
2023/11/13 08:02:42;;;;;;;6.00;0.93;;;15.60;99.90;;;16.01;54.52;100196.81;4924092;28;97494;-45
2023/11/13 08:05:11;;;;;;;1.70;0.40;;;15.80;99.90;;;15.90;55.16;100194.84;4923797;28;98052;-42
2023/11/13 08:07:44;;;;;;;0.80;0.67;;;15.70;99.90;;;15.74;55.89;100188.81;4924033;28;97554;-45
2023/11/13 08:10:13;;;;;;;0.40;0.30;;;15.50;99.90;;;15.90;54.85;100189.53;4927512;28;97606;-44
2023/11/13 08:12:45;;;;;;;1.20;0.80;;;15.60;99.90;;;15.85;55.66;100180.16;4927060;28;97038;-45
2023/11/13 08:15:12;;;;;;;1.50;0.70;;;15.50;99.90;;;15.77;55.41;100172.69;4925921;28;97669;-43
2023/11/13 08:17:46;;;;;;;1.67;0.63;;;15.40;99.90;;;15.88;55.11;100163.97;4926200;28;97684;-44
2023/11/13 08:20:14;;;;;;;4.40;1.13;;;15.60;99.90;;;15.99;54.39;100150.84;4928057;28;97430;-45
2023/11/13 08:22:46;;;;;;;2.67;0.50;;;15.80;99.90;;;16.17;53.85;100132.78;4926046;28;97332;-44
2023/11/13 08:25:12;;;;;;;0.83;0.43;;;16.00;99.90;;;16.35;53.45;100121.78;4924167;28;97595;-43
2023/11/13 08:27:45;;;;;;;1.83;0.60;;;16.30;99.90;;;16.44;53.35;100119.44;4914219;28;97616;-44
2023/11/13 08:30:15;;;;;;;1.37;0.50;;;16.40;99.90;;;16.59;52.83;100105.06;4923190;28;96867;-44
2023/11/13 08:32:42;;;;;;;3.20;0.90;;;16.60;99.90;;;16.55;53.30;100127.53;4924383;28;97483;-44
2023/11/13 08:35:12;;;;;;;0.40;0.40;;;16.60;99.90;;;16.46;53.41;100126.34;4926691;28;98107;-43
2023/11/13 08:37:48;;;;;;;0.60;0.47;;;16.40;99.90;;;16.36;53.42;100112.84;4922662;28;97113;-47
2023/11/13 08:40:19;;;;;;;0.80;0.50;;;16.20;99.90;;;16.45;53.19;100102.50;4910194;28;97057;-43
2023/11/13 08:42:46;;;;;;;2.37;1.00;;;16.30;99.90;;;16.40;53.90;100109.97;4909497;28;97425;-43
2023/11/13 08:45:13;;;;;;;1.43;0.77;;;16.30;99.90;;;16.36;53.63;100102.19;4908755;28;97787;-43
2023/11/13 08:47:40;;;;;;;0.40;0.40;;;16.20;99.90;;;16.27;54.74;100101.97;4907715;28;97365;-45
2023/11/13 08:50:09;;;;;;;2.00;0.57;;;16.10;99.90;;;16.28;53.54;100087.69;4905428;28;98497;-44
2023/11/13 08:52:35;;;;;;;0.43;0.40;;;16.10;99.90;;;16.34;53.59;100095.25;4909344;28;97709;-43
2023/11/13 08:55:03;;;;;;;2.13;0.80;;;16.20;99.90;;;16.25;55.49;100091.41;4907873;28;98571;-43
2023/11/13 08:57:29;;;;;;;1.20;0.43;;;16.10;99.90;;;16.27;54.21;100089.50;4907020;28;97929;-44
2023/11/13 08:59:55;;;;;;;0.43;0.40;;;16.10;99.90;;;16.17;55.01;100084.91;4908136;28;97814;-45
2023/11/13 09:02:25;;;;;;;1.00;0.53;;;16.00;99.90;;;16.28;53.79;100083.22;4907993;28;97536;-45
2023/11/13 09:04:52;;;;;;;0.47;0.40;;;16.10;99.90;;;16.39;53.84;100081.66;4912069;28;100298;-44
2023/11/13 09:07:18;;;;;;;0.97;0.67;;;16.20;99.90;;;16.50;53.17;100068.47;4913906;28;102483;-45
2023/11/13 09:09:44;;;;;;;0.40;0.40;;;16.50;99.90;;;16.54;53.17;100062.81;4909828;28;100990;-47
2023/11/13 09:12:12;;;;;;;1.73;0.73;;;16.50;99.90;;;16.46;54.18;100058.97;4913261;28;97092;-43
2023/11/13 09:14:39;;;;;;;0.90;0.47;;;16.40;99.90;;;16.46;54.08;100053.63;4912041;28;97576;-43
2023/11/13 09:17:12;;;;;;;0.67;0.50;;;16.40;99.90;;;16.54;53.34;100053.97;4914380;28;97810;-43
2023/11/13 09:19:41;;;;;;;2.27;0.50;;;16.50;99.90;;;16.47;53.09;100045.53;4912989;28;97480;-43
2023/11/13 09:22:12;;;;;;;0.43;0.30;;;16.40;99.90;;;16.60;53.03;100046.38;4909448;28;97296;-43
2023/11/13 09:24:41;;;;;;;1.37;0.70;;;16.50;99.90;;;16.55;53.49;100037.03;4912262;28;97363;-47
2023/11/13 09:27:11;;;;;;;1.70;0.60;;;16.50;99.90;;;16.58;53.50;100026.16;4908539;28;97480;-45
2023/11/13 09:29:44;;;;;;;0.57;0.40;;;16.50;99.90;;;16.62;53.12;100016.97;4916199;28;99824;-45
2023/11/13 09:32:11;;;;;;;1.07;0.40;;;16.60;99.90;;;16.68;52.89;100021.94;4918066;28;96822;-42
2023/11/13 09:34:37;;;;;;;0.37;0.23;;;16.70;99.90;;;16.75;52.58;100017.84;4915769;28;97740;-44
2023/11/13 09:37:05;;;;;;;1.57;0.50;;;16.70;99.90;;;16.84;52.60;100006.56;4914569;28;97430;-45
2023/11/13 09:39:39;;;;;;;0.70;0.30;;;16.90;99.90;;;16.83;52.52;100004.00;4914674;28;98373;-43
2023/11/13 09:42:14;;;;;;;0.50;0.37;;;16.90;99.90;;;16.91;52.13;100002.47;4900190;28;97614;-47
2023/11/13 09:44:42;;;;;;;0.33;0.30;;;17.00;99.90;;;16.95;51.92;99988.00;4915812;28;99147;-44
2023/11/13 09:47:10;;;;;;;1.27;0.23;;;17.00;99.90;;;16.99;51.66;99988.63;4912384;28;97197;-47
2023/11/13 09:49:50;;;;;;;2.33;0.70;;;17.10;99.90;;;17.06;51.98;99967.69;4914601;28;97224;-45
2023/11/13 09:52:18;;;;;;;0.37;0.27;;;17.20;99.90;;;17.05;51.80;99902.91;4898486;28;97000;-47
2023/11/13 09:54:46;;;;;;;2.13;0.60;;;17.20;99.90;;;16.99;52.24;99857.22;4914299;28;100031;-43
2023/11/13 09:57:14;;;;;;;1.03;0.50;;;17.30;99.90;;;16.95;52.22;99860.13;4913284;28;97752;-44
2023/11/13 09:59:45;;;;;;;1.23;0.60;;;17.30;99.90;;;17.02;52.21;99854.34;4916820;28;97389;-43
2023/11/13 10:02:12;;;;;;;1.17;0.57;;;17.30;99.90;;;17.07;52.42;99868.16;4902078;28;97562;-46
2023/11/13 10:04:37;;;;;;;1.90;0.70;;;17.40;99.90;;;17.13;52.01;99878.38;4917475;28;97377;-42
2023/11/13 10:07:06;;;;;;;2.07;0.40;;;17.40;99.90;;;17.14;52.00;99869.41;4921176;28;97195;-45
2023/11/13 10:09:32;;;;;;;0.80;0.47;;;17.40;99.90;;;17.11;52.08;99857.16;4920219;28;98872;-44
2023/11/13 10:12:02;;;;;;;0.67;0.50;;;17.40;99.90;;;17.17;52.23;99858.50;4917207;28;97045;-43